»·PEaware :: N13PC LIPB-EDDN

N13PC :: LIPB-EDDN

FLIGHT INFORMATION

Flight Status: Arrived
Operator: Privately registered:
United States
More flights under this callsign
Pilot: Lee W. (44)
Aircraft: PIPER PA-24 COMMANCHE
(PA24)
More flights by this aircraft type
Origin: LIPB Bolzano
Italy
Destination: EDDN Nurnberg
Germany
More flights between these airports :: More routes between these airports
Route: INN OBI WLD
File this flight plan on PilotEdge
Remarks:
Altitude:
(Current/Filed)
10,000ft
Speed:
(Current/Filed)
150kts
Departed: 01-May-11 04:29 AM
Arrived: 01-May-11 05:42 AM
Distance/Time
Traveled:
182nm/1:12
Distance/Time
To Go:
Arrived

Flight Plot

Page will automatically refresh every two minutes.


Map Options




Map Legend


Flown Route
Filed Route
Departure Airport
Arrival Airport
Navaid (VOR, NDB)
Fix

Horizontal Profiles

Position Reports

Time Latitude Longitude Heading Altitude Ground
Speed
01-May-11 04:21 46.462234 11.329566 279 792ft 0kts
01-May-11 04:22 46.462234 11.329566 279 792ft 0kts
01-May-11 04:23 46.462464 11.328918 305 792ft 8kts
01-May-11 04:24 46.460703 11.326482 190 792ft 23kts
01-May-11 04:25 46.453772 11.324773 25 792ft 8kts
01-May-11 04:26 46.456223 11.325370 10 792ft 64kts
01-May-11 04:27 46.489678 11.338613 20 1386ft 152kts
01-May-11 04:28 46.530415 11.360788 20 2591ft 159kts
01-May-11 04:29 46.573054 11.379323 12 3792ft 162kts
01-May-11 04:30 46.617637 11.380123 344 4987ft 163kts
01-May-11 04:31 46.660526 11.361796 343 6169ft 164kts
01-May-11 04:32 46.705447 11.352324 1 7375ft 164kts
01-May-11 04:33 46.750950 11.356145 4 8571ft 165kts
01-May-11 04:34 46.796664 11.360635 3 9768ft 165kts
01-May-11 04:35 46.846004 11.365280 3 10006ft 185kts
01-May-11 04:36 46.897133 11.370125 3 10006ft 183kts
01-May-11 04:37 46.947341 11.374907 3 10231ft 170kts
01-May-11 04:38 46.989252 11.378920 3 11175ft 134kts
01-May-11 04:39 47.029588 11.382840 3 12027ft 167kts
01-May-11 04:40 47.079718 11.387591 2 12036ft 185kts
01-May-11 04:41 47.132306 11.392628 2 11722ft 200kts
01-May-11 04:42 47.190030 11.398197 3 10934ft 212kts
01-May-11 04:43 47.249004 11.399876 353 10130ft 214kts
01-May-11 04:44 47.305610 11.391842 354 10039ft 196kts
01-May-11 04:45 47.358986 11.384666 354 10034ft 191kts
01-May-11 04:46 47.411024 11.377586 353 10037ft 186kts
01-May-11 04:47 47.462258 11.370652 353 10028ft 190kts
01-May-11 04:48 47.515761 11.363363 354 10037ft 196kts
01-May-11 04:49 47.562683 11.356970 354 9718ft 208kts
01-May-11 04:50 47.620933 11.349021 355 9320ft 208kts
01-May-11 04:51 47.675337 11.341543 355 8906ft 185kts
01-May-11 04:52 47.724303 11.334817 354 8491ft 171kts
01-May-11 04:53 47.771187 11.328358 354 8085ft 168kts
01-May-11 04:54 47.817883 11.321861 357 7683ft 168kts
01-May-11 04:55 47.864210 11.315526 358 7288ft 166kts
01-May-11 04:56 47.909534 11.309299 358 6891ft 162kts
01-May-11 04:57 47.954195 11.303127 358 6483ft 159kts
01-May-11 04:59 48.038931 11.291347 358 6120ft 141kts
01-May-11 05:00 48.077235 11.286023 358 6124ft 137kts
01-May-11 05:01 48.114709 11.275066 353 6122ft 137kts
01-May-11 05:02 48.152313 11.263364 352 6125ft 138kts
01-May-11 05:03 48.190060 11.251613 353 6125ft 138kts
01-May-11 05:04 48.227758 11.239879 353 6122ft 138kts
01-May-11 05:05 48.265454 11.228142 353 6119ft 138kts
01-May-11 05:06 48.303140 11.216382 352 6125ft 138kts
01-May-11 05:07 48.340912 11.204569 353 6120ft 138kts
01-May-11 05:08 48.378362 11.192853 353 6121ft 138kts
01-May-11 05:09 48.419325 11.180081 352 6129ft 160kts
01-May-11 05:10 48.461756 11.166685 352 5613ft 148kts
01-May-11 05:11 48.501489 11.154166 350 5000ft 144kts
01-May-11 05:12 48.542092 11.141441 351 4427ft 167kts
01-May-11 05:13 48.590379 11.128601 1 4121ft 174kts
01-May-11 05:14 48.637934 11.126339 0 4124ft 170kts
01-May-11 05:15 48.685528 11.123665 0 4028ft 172kts
01-May-11 05:16 48.733491 11.120960 0 4023ft 170kts
01-May-11 05:17 48.780265 11.118273 0 4023ft 167kts
01-May-11 05:18 48.826698 11.115632 0 4018ft 166kts
01-May-11 05:19 48.872834 11.112988 0 4020ft 166kts
01-May-11 05:20 48.918940 11.110172 0 4021ft 165kts
01-May-11 05:21 48.964887 11.107333 0 4026ft 166kts
01-May-11 05:22 49.011047 11.104540 0 4027ft 167kts
01-May-11 05:23 49.057617 11.101495 0 4031ft 167kts
01-May-11 05:24 49.104150 11.098319 0 4019ft 167kts
01-May-11 05:25 49.150497 11.095251 0 4024ft 166kts
01-May-11 05:26 49.196825 11.092107 1 4024ft 166kts
01-May-11 05:27 49.242646 11.082538 351 4021ft 168kts
01-May-11 05:28 49.288583 11.067718 350 4037ft 169kts
01-May-11 05:29 49.334730 11.052853 351 4030ft 169kts
01-May-11 05:30 49.380909 11.040147 15 4014ft 166kts
01-May-11 05:31 49.419516 11.076029 33 4027ft 163kts
01-May-11 05:32 49.457264 11.114024 33 4019ft 162kts
01-May-11 05:33 49.499803 11.143132 7 3502ft 171kts
01-May-11 05:34 49.533180 11.123257 283 2523ft 153kts
01-May-11 05:35 49.538734 11.061894 282 2012ft 127kts
01-May-11 05:36 49.541106 11.010490 250 2019ft 129kts
01-May-11 05:37 49.508300 10.984248 185 1912ft 142kts
01-May-11 05:38 49.503954 11.029440 103 1406ft 126kts
01-May-11 05:39 49.499375 11.070345 138 1048ft 25kts
01-May-11 05:40 49.497121 11.074329 100 1048ft 16kts
01-May-11 05:41 49.495540 11.079716 98 1048ft 15kts
01-May-11 05:42 49.495405 11.085237 23 1048ft 0kts
01-May-11 05:43 49.495650 11.085179 288 1048ft 0kts

Navigation Log

Ident Type
1. LIPB Airport
2. INN Navaid
3. OBI Navaid
4. WLD Navaid
5. EDDN Airport